Observations for MILDENHALL RAF, United Kingdom (EGUN)

EGUN 190301Z AUTO 19010G18KT 9999 SCT055 OVC160 18/17 A2983 RMK AO2 SLP104
EGUN 190256Z AUTO 19014KT 9999 BKN055 OVC160 18/17 A2983 RMK AO2 SLP104 T01770169 55003 
EGUN 190231Z AUTO 20010KT 9999 BKN049 OVC170 18/17 A2984 RMK AO2 SLP108
EGUN 190216Z AUTO 20011KT 9999 BKN050 BKN160 18/17 A2985 RMK AO2 SLP111
EGUN 190246Z AUTO 19013KT 9999 BKN050 BKN060 OVC160 18/17 A2984 RMK AO2 SLP108
EGUN 190156Z AUTO 20011KT 9999 BKN150 BKN170 18/17 A2985 RMK AO2 SLP111 T01780166   
EGUN 190056Z AUTO 21014KT 9999 BKN160 18/16 A2984 RMK AO2 SLP108 T01820162  
EGUN 182356Z AUTO 22014KT 9999 BKN160 18/16 A2984 RMK AO2 SLP108 T01820163 10200 20178 402280164 53003  
EGUN 182256Z AUTO 22013G19KT 9999 OVC180 18/17 A2984 RMK AO2 SLP108 T01810168   
EGUN 182156Z AUTO 20015KT 9999 FEW048 OVC190 18/17 A2983 RMK AO2 SLP104 T01810166   
EGUN 182111Z AUTO 21013KT 9999 BKN049 18/17 A2984 RMK AO2 SLP108
EGUN 182116Z AUTO 21013G20KT 9999 SCT049 BKN200 18/17 A2983 RMK AO2 SLP104
EGUN 182056Z AUTO 20013KT 9999 CLR 18/17 A2983 RMK AO2 SLP104 T01780170 51008   
EGUN 181956Z AUTO 20013KT 9999 CLR 18/17 A2983 RMK AO2 SLP104 T01830166 
EGUN 181856Z AUTO 21013KT 9999 FEW049 19/16 A2982 RMK AO2 SLP101 T01920158  
EGUN 181816Z AUTO 22018G24KT 9999 BKN050 20/15 A2981 RMK AO2 SLP098
EGUN 181846Z AUTO 22011G19KT 9999 SCT050 19/16 A2982 RMK AO2 SLP101
EGUN 181756Z AUTO 22013KT 9999 CLR 20/15 A2981 RMK AO2 SLP098 60000 T02010151 10228 20201 52010 
EGUN 181731Z AUTO 21019G23KT 9999 BKN044 BKN050 21/14 A2980 RMK AO2 SLP094
EGUN 181736Z AUTO 22019G23KT 9999 SCT044 SCT055 21/15 A2980 RMK AO2 SLP094
EGUN 181716Z AUTO 22016G22KT 9999 BKN041 BKN060 21/14 A2980 RMK AO2 SLP094
EGUN 181721Z AUTO 22014G22KT 9999 SCT041 BKN060 21/14 A2980 RMK AO2 SLP094
EGUN 181701Z AUTO 22014KT 9999 SCT045 BKN060 21/14 A2979 RMK AO2 SLP091
EGUN 181656Z AUTO 22017KT 9999 BKN045 BKN060 22/14 A2979 RMK AO2 SLP091 T02150139   
EGUN 181601Z AUTO 22015G19KT 9999 BKN047 OVC055 22/14 A2979 RMK AO2 SLP091
EGUN 181556Z AUTO 23012KT 9999 BKN050 OVC060 22/13 A2979 RMK AO2 PK WND 22026/22 SLP091 T02210134   
EGUN 181536Z AUTO 23016G23KT 9999 OVC050 22/13 A2978 RMK AO2 SLP087
EGUN 181456Z AUTO 23015G25KT 9999 BKN043 22/13 A2978 RMK AO2 PK WND 24031/07 RAB22E23RAB29E39 SLP087 P0000 60000 T02200133 52020
EGUN 181429Z AUTO 26020G26KT 9999 -RA BKN045 23/13 A2977 RMK AO2 RAB22E23RAB29 SLP084
EGUN 181434Z AUTO 25017G24KT 9999 -RA SCT046 22/13 A2977 RMK AO2 RAB22E23RAB29 SLP084
EGUN 181439Z AUTO 25017G22KT 9999 -RA BKN045 22/13 A2977 RMK AO2 RAB22E23RAB29E39 SLP084
EGUN 181440Z AUTO 25018G22KT 9999 BKN045 22/13 A2977 RMK AO2 RAB22E23RAB29E39 SLP084
EGUN 181422Z AUTO 26020G27KT 9999 -RA SCT044 23/13 A2977 RMK AO2 RAB22 SLP084
EGUN 181423Z AUTO 26019G26KT 9999 BKN045 23/13 A2977 RMK AO2 RAB22E23 SLP084
EGUN 181356Z AUTO 23018G28KT 9999 CLR 22/13 A2975 RMK AO2 PK WND 23034/00 SLP077 T02200125  
EGUN 181256Z AUTO 23022G31KT 9999 CLR 22/12 A2973 RMK AO2 PK WND 23036/27 SLP070 T02180118  
EGUN 181156Z AUTO 24016G30KT 9999 CLR 21/13 A2972 RMK AO2 PK WND 21032/36 SLP067 T02110128 10223 20194 52020
EGUN 181106Z AUTO 22022G30KT 9999 SCT026 22/16 A2970 RMK AO2 SLP060
EGUN 181116Z AUTO 23023G28KT 9999 FEW026 BKN032 22/15 A2970 RMK AO2 SLP060
EGUN 181121Z AUTO 23020G28KT 9999 FEW026 SCT032 22/14 A2970 RMK AO2 SLP060
EGUN 181056Z AUTO 22022G29KT 9999 BKN024 BKN032 21/17 A2970 RMK AO2 PK WND 23031/53 CIG 023V030 BKN024 V SCT SLP060 T02080172   
EGUN 181026Z AUTO 23019G26KT 9999 BKN022 OVC031 20/18 A2969 RMK AO2 SLP057
EGUN 181041Z AUTO 23017G29KT 9999 BKN023 OVC030 20/18 A2970 RMK AO2 SLP060
EGUN 181051Z AUTO 22021G29KT 9999 SCT024 BKN030 21/17 A2970 RMK AO2 SLP060